Time;durP1;ratioP1;P1;durP2;ratioP2;P2;SDS_P1;SDS_P2;PMS_P1;PMS_P2;Temp;Humidity;BMP_temperature;BMP_pressure;BME280_temperature;BME280_humidity;BME280_pressure;Samples;Min_cycle;Max_cycle;Signal;HPM_P1;HPM_P2
2021/11/04 00:01:14;;;;;;;17.95;3.35;;;;;;;;;;5102532;28;20039;-51
2021/11/04 00:03:40;;;;;;;15.40;3.15;;;;;;;;;;5100026;28;20063;-52
2021/11/04 00:06:08;;;;;;;12.77;3.67;;;;;;;;;;5100987;28;20027;-49
2021/11/04 00:08:33;;;;;;;14.60;3.70;;;;;;;;;;5101643;28;20107;-52
2021/11/04 00:11:02;;;;;;;19.52;3.92;;;;;;;;;;5099920;28;20123;-52
2021/11/04 00:13:27;;;;;;;11.80;3.83;;;;;;;;;;5108784;28;20262;-51
2021/11/04 00:15:53;;;;;;;15.15;3.78;;;;;;;;;;5083322;28;20294;-51
2021/11/04 00:18:19;;;;;;;12.07;3.83;;;;;;;;;;5101008;28;20039;-51
2021/11/04 00:20:44;;;;;;;8.60;3.05;;;;;;;;;;5104074;28;20394;-52
2021/11/04 00:23:10;;;;;;;14.93;3.97;;;;;;;;;;5100716;28;20043;-51
2021/11/04 00:25:35;;;;;;;12.85;3.58;;;;;;;;;;5102137;28;20469;-51
2021/11/04 00:28:01;;;;;;;12.45;3.25;;;;;;;;;;5085323;28;20051;-48
2021/11/04 00:30:27;;;;;;;22.23;3.97;;;;;;;;;;5100978;28;20107;-49
2021/11/04 00:32:54;;;;;;;16.10;3.65;;;;;;;;;;5106747;28;20554;-52
2021/11/04 00:35:20;;;;;;;10.63;3.20;;;;;;;;;;5096767;28;20016;-52
2021/11/04 00:37:47;;;;;;;8.00;2.97;;;;;;;;;;5101239;28;20122;-53
2021/11/04 00:40:18;;;;;;;25.42;3.50;;;;;;;;;;5102386;28;20059;-52
2021/11/04 00:42:43;;;;;;;14.13;3.72;;;;;;;;;;5098646;27;20062;-52
2021/11/04 00:45:10;;;;;;;11.18;3.50;;;;;;;;;;5100805;27;20461;-52
2021/11/04 00:47:35;;;;;;;19.75;3.85;;;;;;;;;;5100010;28;20035;-52
2021/11/04 00:50:02;;;;;;;16.83;3.45;;;;;;;;;;5102134;28;20026;-51
2021/11/04 00:52:27;;;;;;;15.13;3.10;;;;;;;;;;5087463;28;20052;-51
2021/11/04 00:54:53;;;;;;;12.30;3.25;;;;;;;;;;5099037;28;20047;-49
2021/11/04 00:57:18;;;;;;;16.58;2.50;;;;;;;;;;5098659;28;20035;-51
2021/11/04 00:59:44;;;;;;;5.78;2.58;;;;;;;;;;5084809;28;20062;-52
2021/11/04 01:02:10;;;;;;;8.02;2.65;;;;;;;;;;5098113;28;20051;-52
2021/11/04 01:04:36;;;;;;;9.27;2.80;;;;;;;;;;5096616;28;20047;-49
2021/11/04 01:07:02;;;;;;;12.45;2.50;;;;;;;;;;5100923;28;20407;-49
2021/11/04 01:09:27;;;;;;;13.75;2.40;;;;;;;;;;5100218;28;20032;-48
2021/11/04 01:11:53;;;;;;;11.88;2.17;;;;;;;;;;5100666;27;20035;-51
2021/11/04 01:14:19;;;;;;;15.43;3.55;;;;;;;;;;5097369;28;20525;-51
2021/11/04 01:16:44;;;;;;;14.35;2.30;;;;;;;;;;5094922;28;20040;-52
2021/11/04 01:19:12;;;;;;;11.45;2.13;;;;;;;;;;5094277;28;20451;-49
2021/11/04 01:21:41;;;;;;;16.52;2.42;;;;;;;;;;5097698;28;20327;-50
2021/11/04 01:24:07;;;;;;;9.82;2.78;;;;;;;;;;5096362;28;20024;-49
2021/11/04 01:26:33;;;;;;;12.52;2.60;;;;;;;;;;5092554;28;20509;-49
2021/11/04 01:28:59;;;;;;;11.25;2.30;;;;;;;;;;5111343;27;20602;-50
2021/11/04 01:31:24;;;;;;;11.50;2.50;;;;;;;;;;5092124;28;20028;-53
2021/11/04 01:33:50;;;;;;;13.13;3.00;;;;;;;;;;5096631;28;20028;-50
2021/11/04 01:36:15;;;;;;;19.05;2.40;;;;;;;;;;5097478;27;20092;-52
2021/11/04 01:38:41;;;;;;;16.70;3.00;;;;;;;;;;5081969;28;20024;-49
2021/11/04 01:41:07;;;;;;;9.35;2.35;;;;;;;;;;5091889;28;20120;-49
2021/11/04 01:43:32;;;;;;;12.13;2.58;;;;;;;;;;5100953;28;20027;-50
2021/11/04 01:45:58;;;;;;;10.80;2.78;;;;;;;;;;5095744;27;20445;-52
2021/11/04 01:48:23;;;;;;;17.55;3.33;;;;;;;;;;5096573;28;20040;-53
2021/11/04 01:50:49;;;;;;;16.73;3.28;;;;;;;;;;5099343;28;20131;-54
2021/11/04 01:53:18;;;;;;;23.15;3.33;;;;;;;;;;5087856;28;20031;-51
2021/11/04 01:55:43;;;;;;;16.17;3.17;;;;;;;;;;5078400;28;20571;-47
2021/11/04 01:58:09;;;;;;;11.90;2.53;;;;;;;;;;5096390;27;20036;-48
2021/11/04 02:00:35;;;;;;;8.90;2.38;;;;;;;;;;5096683;28;20509;-51
2021/11/04 02:03:22;;;;;;;10.88;2.00;;;;;;;;;;5094978;28;20309;-48
2021/11/04 02:06:09;;;;;;;10.70;2.00;;;;;;;;;;5092258;28;20178;-50
2021/11/04 02:08:50;;;;;;;9.10;2.03;;;;;;;;;;5098258;28;20027;-50
2021/11/04 02:11:32;;;;;;;7.75;1.55;;;;;;;;;;5100122;28;20118;-51
2021/11/04 02:14:01;;;;;;;8.52;1.73;;;;;;;;;;5097347;28;20353;-52
2021/11/04 02:16:29;;;;;;;10.02;1.70;;;;;;;;;;5098186;28;20024;-49
2021/11/04 02:18:59;;;;;;;11.38;1.58;;;;;;;;;;5096167;28;20077;-48
2021/11/04 02:21:41;;;;;;;14.27;1.85;;;;;;;;;;5096101;28;20023;-50
2021/11/04 02:24:19;;;;;;;9.35;1.92;;;;;;;;;;5090089;28;20032;-49
2021/11/04 02:26:46;;;;;;;9.25;2.88;;;;;;;;;;5096198;27;20035;-49
2021/11/04 02:29:13;;;;;;;15.07;2.25;;;;;;;;;;5096059;28;20019;-48
2021/11/04 02:31:39;;;;;;;14.10;2.05;;;;;;;;;;5096950;28;20019;-52
2021/11/04 02:34:04;;;;;;;12.57;3.00;;;;;;;;;;5095402;28;20081;-49
2021/11/04 02:36:31;;;;;;;7.32;1.52;;;;;;;;;;5098784;28;20020;-52
2021/11/04 02:38:57;;;;;;;7.28;1.73;;;;;;;;;;5090647;28;20032;-50
2021/11/04 02:41:23;;;;;;;4.57;1.98;;;;;;;;;;5095655;28;20123;-52
2021/11/04 02:43:50;;;;;;;14.98;2.33;;;;;;;;;;5094128;28;20402;-51
2021/11/04 02:46:16;;;;;;;14.52;2.65;;;;;;;;;;5089194;28;20071;-49
2021/11/04 02:48:42;;;;;;;3.35;1.65;;;;;;;;;;5094074;28;20066;-48
2021/11/04 02:51:08;;;;;;;11.55;1.80;;;;;;;;;;5094719;28;20122;-50
2021/11/04 02:53:34;;;;;;;3.83;1.70;;;;;;;;;;5100991;28;20735;-51
2021/11/04 02:56:00;;;;;;;11.48;2.85;;;;;;;;;;5095838;28;20032;-51
2021/11/04 02:58:27;;;;;;;7.85;1.88;;;;;;;;;;5090940;28;20031;-52
2021/11/04 03:00:56;;;;;;;8.52;1.60;;;;;;;;;;5098448;28;20275;-52
2021/11/04 03:03:22;;;;;;;12.48;1.85;;;;;;;;;;5089307;28;20052;-52
2021/11/04 03:05:48;;;;;;;16.52;2.08;;;;;;;;;;5081514;28;20080;-52
2021/11/04 03:08:14;;;;;;;13.13;2.10;;;;;;;;;;5092922;28;20508;-50
2021/11/04 03:10:39;;;;;;;4.82;1.60;;;;;;;;;;5070957;28;20038;-51
2021/11/04 03:13:06;;;;;;;8.35;1.65;;;;;;;;;;5091696;28;20032;-51
2021/11/04 03:15:37;;;;;;;15.13;1.80;;;;;;;;;;5093544;28;20114;-51
2021/11/04 03:18:03;;;;;;;5.18;1.30;;;;;;;;;;5094003;28;20037;-51
2021/11/04 03:20:30;;;;;;;9.23;1.25;;;;;;;;;;5098576;28;20044;-49
2021/11/04 03:22:56;;;;;;;9.07;1.60;;;;;;;;;;5090497;28;20040;-52
2021/11/04 03:25:22;;;;;;;6.40;1.45;;;;;;;;;;5101830;28;20239;-52
2021/11/04 03:27:52;;;;;;;8.40;2.17;;;;;;;;;;5098985;28;20028;-48
2021/11/04 03:30:22;;;;;;;7.95;1.42;;;;;;;;;;5093662;28;20016;-48
2021/11/04 03:32:48;;;;;;;12.40;1.38;;;;;;;;;;5096714;28;20024;-48
2021/11/04 03:35:15;;;;;;;11.43;1.88;;;;;;;;;;5099026;28;20085;-48
2021/11/04 03:37:45;;;;;;;11.50;1.48;;;;;;;;;;5094688;28;20035;-48
2021/11/04 03:40:11;;;;;;;3.05;1.10;;;;;;;;;;5099697;28;20429;-50
2021/11/04 03:42:39;;;;;;;7.70;1.00;;;;;;;;;;5094539;28;20032;-49
2021/11/04 03:45:06;;;;;;;12.38;1.52;;;;;;;;;;5095364;28;20059;-50
2021/11/04 03:47:33;;;;;;;11.23;1.65;;;;;;;;;;5087889;28;20115;-49
2021/11/04 03:49:59;;;;;;;8.15;1.40;;;;;;;;;;5083100;28;20089;-48
2021/11/04 03:52:27;;;;;;;10.82;1.63;;;;;;;;;;5093446;28;20418;-48
2021/11/04 03:54:53;;;;;;;3.70;1.00;;;;;;;;;;5096932;28;20395;-48
2021/11/04 03:57:18;;;;;;;9.68;1.60;;;;;;;;;;5092686;28;20038;-48
2021/11/04 03:59:45;;;;;;;4.97;1.35;;;;;;;;;;5094664;28;20166;-51
2021/11/04 04:02:11;;;;;;;11.07;1.45;;;;;;;;;;5090592;28;20112;-53
2021/11/04 04:04:39;;;;;;;10.05;1.70;;;;;;;;;;5095686;28;20031;-52
2021/11/04 04:07:05;;;;;;;14.18;1.65;;;;;;;;;;5091010;28;20032;-49
2021/11/04 04:09:31;;;;;;;11.82;1.48;;;;;;;;;;5095466;28;20036;-51
2021/11/04 04:11:56;;;;;;;10.07;1.88;;;;;;;;;;5078356;28;20394;-51
2021/11/04 04:14:22;;;;;;;6.53;1.13;;;;;;;;;;5096946;28;20088;-49
2021/11/04 04:16:48;;;;;;;3.63;1.10;;;;;;;;;;5100382;28;20110;-51
2021/11/04 04:19:14;;;;;;;5.45;1.10;;;;;;;;;;5080507;28;20057;-48
2021/11/04 04:21:39;;;;;;;4.93;1.30;;;;;;;;;;5094254;28;20574;-49
2021/11/04 04:24:05;;;;;;;4.10;1.20;;;;;;;;;;5089800;28;20129;-49
2021/11/04 04:26:31;;;;;;;11.80;1.20;;;;;;;;;;5096914;28;20426;-50
2021/11/04 04:28:57;;;;;;;7.80;1.48;;;;;;;;;;5095504;28;20032;-51
2021/11/04 04:31:22;;;;;;;7.70;2.17;;;;;;;;;;5092257;28;20051;-51
2021/11/04 04:33:48;;;;;;;6.13;1.20;;;;;;;;;;5098228;28;20028;-51
2021/11/04 04:36:14;;;;;;;17.25;1.92;;;;;;;;;;5091696;28;20546;-51
2021/11/04 04:38:39;;;;;;;6.93;1.42;;;;;;;;;;5094578;28;20028;-50
2021/11/04 04:41:05;;;;;;;4.38;1.23;;;;;;;;;;5096902;28;20020;-51
2021/11/04 04:43:30;;;;;;;6.20;1.33;;;;;;;;;;5096210;28;20418;-47
2021/11/04 04:45:56;;;;;;;13.05;1.63;;;;;;;;;;5094868;28;20036;-49
2021/11/04 04:48:21;;;;;;;10.40;1.65;;;;;;;;;;5092591;28;20097;-48
2021/11/04 04:50:47;;;;;;;8.30;1.20;;;;;;;;;;5091489;28;20035;-51
2021/11/04 04:53:13;;;;;;;8.15;1.33;;;;;;;;;;5099345;28;20044;-52
2021/11/04 04:55:39;;;;;;;5.85;1.17;;;;;;;;;;5094290;28;20074;-50
2021/11/04 04:58:06;;;;;;;6.93;1.15;;;;;;;;;;5082484;28;20027;-51
2021/11/04 05:00:32;;;;;;;7.20;1.00;;;;;;;;;;5097033;28;20149;-49
2021/11/04 05:02:58;;;;;;;11.32;1.15;;;;;;;;;;5103049;28;20122;-51
2021/11/04 05:05:24;;;;;;;9.27;0.95;;;;;;;;;;5093892;28;20106;-51
2021/11/04 05:07:49;;;;;;;5.82;1.23;;;;;;;;;;5093843;28;20027;-52
2021/11/04 05:10:15;;;;;;;15.75;1.70;;;;;;;;;;5099732;28;20028;-51
2021/11/04 05:12:42;;;;;;;4.82;0.95;;;;;;;;;;5097397;28;20512;-51
2021/11/04 05:15:08;;;;;;;3.53;0.70;;;;;;;;;;5095366;28;20039;-50
2021/11/04 05:17:37;;;;;;;4.13;0.68;;;;;;;;;;5106907;28;20397;-49
2021/11/04 05:20:07;;;;;;;8.05;1.20;;;;;;;;;;5099934;28;20020;-52
2021/11/04 05:22:33;;;;;;;4.72;1.08;;;;;;;;;;5083279;28;20038;-52
2021/11/04 05:24:58;;;;;;;15.13;1.02;;;;;;;;;;5097687;28;20019;-51
2021/11/04 05:27:28;;;;;;;9.45;1.15;;;;;;;;;;5094170;28;20059;-50
2021/11/04 05:29:54;;;;;;;3.70;1.08;;;;;;;;;;5093255;28;20095;-51
2021/11/04 05:32:22;;;;;;;7.90;1.35;;;;;;;;;;5086877;28;20047;-53
2021/11/04 05:34:49;;;;;;;8.43;1.00;;;;;;;;;;5099353;28;20126;-52
2021/11/04 05:37:14;;;;;;;4.95;1.10;;;;;;;;;;5092609;28;20027;-50
2021/11/04 05:39:40;;;;;;;8.95;1.20;;;;;;;;;;5099836;28;20035;-52
2021/11/04 05:42:08;;;;;;;8.13;1.33;;;;;;;;;;5085424;28;20414;-52
2021/11/04 05:44:37;;;;;;;5.72;1.00;;;;;;;;;;5096576;28;20032;-51
2021/11/04 05:47:04;;;;;;;8.40;1.75;;;;;;;;;;5098004;28;20039;-51
2021/11/04 05:49:30;;;;;;;11.57;1.55;;;;;;;;;;5098646;28;20024;-53
2021/11/04 05:51:56;;;;;;;7.47;0.95;;;;;;;;;;5079294;28;20485;-52
2021/11/04 05:54:21;;;;;;;4.07;0.88;;;;;;;;;;5096572;28;20023;-51
2021/11/04 05:56:47;;;;;;;9.40;0.85;;;;;;;;;;5093838;28;20070;-48
2021/11/04 05:59:12;;;;;;;13.70;1.35;;;;;;;;;;5094923;28;20032;-49
2021/11/04 06:01:38;;;;;;;5.82;1.08;;;;;;;;;;5097732;28;20503;-47
2021/11/04 06:04:04;;;;;;;2.72;0.82;;;;;;;;;;5080230;28;20173;-49
2021/11/04 06:06:29;;;;;;;7.63;0.95;;;;;;;;;;5093301;28;20420;-49
2021/11/04 06:08:55;;;;;;;3.13;0.80;;;;;;;;;;5090371;28;20028;-49
2021/11/04 06:11:21;;;;;;;8.60;1.33;;;;;;;;;;5093461;28;20417;-50
2021/11/04 06:13:46;;;;;;;3.53;0.90;;;;;;;;;;5098214;28;20281;-51
2021/11/04 06:16:15;;;;;;;11.05;1.08;;;;;;;;;;5095797;28;20335;-55
2021/11/04 06:18:41;;;;;;;7.03;0.80;;;;;;;;;;5096650;28;20039;-52
2021/11/04 06:21:08;;;;;;;6.25;0.80;;;;;;;;;;5092667;28;20036;-52
2021/11/04 06:23:34;;;;;;;4.75;0.93;;;;;;;;;;5096275;28;20031;-51
2021/11/04 06:26:00;;;;;;;6.53;0.98;;;;;;;;;;5097554;28;20797;-53
2021/11/04 06:28:25;;;;;;;14.93;1.45;;;;;;;;;;5093002;28;20035;-53
2021/11/04 06:30:51;;;;;;;4.07;1.02;;;;;;;;;;5080324;28;20456;-49
2021/11/04 06:33:16;;;;;;;3.63;1.02;;;;;;;;;;5098157;28;20031;-49
2021/11/04 06:35:42;;;;;;;15.20;1.33;;;;;;;;;;5097756;28;20032;-49
2021/11/04 06:38:07;;;;;;;3.92;1.02;;;;;;;;;;5096966;28;20458;-49
2021/11/04 06:40:33;;;;;;;6.05;0.80;;;;;;;;;;5092680;28;20143;-51
2021/11/04 06:42:59;;;;;;;12.85;1.10;;;;;;;;;;5082638;28;20043;-49
2021/11/04 06:45:24;;;;;;;7.57;1.40;;;;;;;;;;5072772;28;20031;-48
2021/11/04 06:47:52;;;;;;;5.65;0.90;;;;;;;;;;5084021;28;20108;-48
2021/11/04 06:50:21;;;;;;;8.10;0.80;;;;;;;;;;5092542;28;20430;-52
2021/11/04 06:53:00;;;;;;;2.33;0.80;;;;;;;;;;5096690;28;20031;-49
2021/11/04 06:55:27;;;;;;;5.88;0.90;;;;;;;;;;5092458;28;20034;-51
2021/11/04 06:58:00;;;;;;;6.80;0.88;;;;;;;;;;5094650;28;20028;-50
2021/11/04 07:00:30;;;;;;;6.60;1.00;;;;;;;;;;5096207;28;20024;-51
2021/11/04 07:03:05;;;;;;;6.57;1.02;;;;;;;;;;5096053;28;20052;-50
2021/11/04 07:05:31;;;;;;;7.15;0.93;;;;;;;;;;5090126;28;20051;-52
2021/11/04 07:07:59;;;;;;;2.38;1.13;;;;;;;;;;5101368;28;20514;-50
2021/11/04 07:10:25;;;;;;;4.97;0.70;;;;;;;;;;5086277;28;20395;-52
2021/11/04 07:12:50;;;;;;;10.38;1.35;;;;;;;;;;5097762;28;20027;-53
2021/11/04 07:15:19;;;;;;;7.28;0.95;;;;;;;;;;5104096;28;20065;-50
2021/11/04 07:17:46;;;;;;;11.13;1.05;;;;;;;;;;5094459;28;20051;-51
2021/11/04 07:20:13;;;;;;;12.18;0.98;;;;;;;;;;5095907;28;20061;-50
2021/11/04 07:22:52;;;;;;;7.80;1.10;;;;;;;;;;5080295;28;20592;-50
2021/11/04 07:25:21;;;;;;;6.53;1.27;;;;;;;;;;5093469;28;20059;-52
2021/11/04 07:27:54;;;;;;;4.05;1.00;;;;;;;;;;5096786;28;20024;-49
2021/11/04 07:30:21;;;;;;;9.02;0.90;;;;;;;;;;5093158;28;20068;-52
2021/11/04 07:32:50;;;;;;;13.80;2.67;;;;;;;;;;5097357;28;20047;-52
2021/11/04 07:35:19;;;;;;;14.73;6.07;;;;;;;;;;5095357;28;20028;-53
2021/11/04 07:37:46;;;;;;;21.35;12.07;;;;;;;;;;5091854;28;20111;-53
2021/11/04 07:40:14;;;;;;;37.42;18.27;;;;;;;;;;5081281;28;20107;-52
2021/11/04 07:42:41;;;;;;;30.65;14.15;;;;;;;;;;5099569;28;20051;-52
2021/11/04 07:45:07;;;;;;;31.73;17.27;;;;;;;;;;5094012;28;20027;-51
2021/11/04 07:47:36;;;;;;;18.58;5.45;;;;;;;;;;5088049;28;20089;-49
2021/11/04 07:50:01;;;;;;;12.88;4.50;;;;;;;;;;5094572;28;20059;-51
2021/11/04 07:52:27;;;;;;;13.77;3.05;;;;;;;;;;5093080;28;20059;-54
2021/11/04 07:54:52;;;;;;;10.65;2.42;;;;;;;;;;5094437;28;20471;-53
2021/11/04 07:57:18;;;;;;;3.90;0.98;;;;;;;;;;5090378;28;20019;-52
2021/11/04 07:59:43;;;;;;;7.68;1.60;;;;;;;;;;5092298;28;20027;-49
2021/11/04 08:02:09;;;;;;;14.85;2.30;;;;;;;;;;5091654;28;20477;-53
2021/11/04 08:04:34;;;;;;;5.88;1.08;;;;;;;;;;5099092;28;20134;-53
2021/11/04 08:07:00;;;;;;;10.32;1.70;;;;;;;;;;5098056;28;20019;-53
2021/11/04 08:09:26;;;;;;;7.47;1.55;;;;;;;;;;5092020;28;20068;-56
2021/11/04 08:11:51;;;;;;;11.93;1.27;;;;;;;;;;5095779;28;20055;-51
2021/11/04 08:14:17;;;;;;;11.93;1.63;;;;;;;;;;5093479;28;20035;-53
2021/11/04 08:16:42;;;;;;;3.90;0.95;;;;;;;;;;5091871;28;20036;-53
2021/11/04 08:19:08;;;;;;;7.03;1.45;;;;;;;;;;5095883;28;20024;-50
2021/11/04 08:21:33;;;;;;;7.55;0.93;;;;;;;;;;5069992;28;20043;-49
2021/11/04 08:23:59;;;;;;;11.52;1.80;;;;;;;;;;5095627;28;20028;-48
2021/11/04 08:26:24;;;;;;;5.85;1.17;;;;;;;;;;5096457;28;20479;-50
2021/11/04 08:28:52;;;;;;;14.07;1.50;;;;;;;;;;5107573;28;20036;-49
2021/11/04 08:31:18;;;;;;;9.77;1.38;;;;;;;;;;5102181;27;20041;-49
2021/11/04 08:33:43;;;;;;;13.23;1.67;;;;;;;;;;5098709;28;20043;-49
2021/11/04 08:36:09;;;;;;;6.15;1.15;;;;;;;;;;5095554;28;20036;-51
2021/11/04 08:38:35;;;;;;;11.38;1.17;;;;;;;;;;5096519;28;20546;-51
2021/11/04 08:41:00;;;;;;;17.50;1.73;;;;;;;;;;5103466;28;20493;-53
2021/11/04 08:43:26;;;;;;;8.27;1.35;;;;;;;;;;5095491;28;20032;-51
2021/11/04 08:45:51;;;;;;;18.25;2.45;;;;;;;;;;5099704;28;20030;-49
2021/11/04 08:48:18;;;;;;;8.20;1.40;;;;;;;;;;5100314;28;20410;-51
2021/11/04 08:50:45;;;;;;;9.95;1.27;;;;;;;;;;5103021;28;20056;-50
2021/11/04 08:53:10;;;;;;;13.98;1.17;;;;;;;;;;5094927;28;20027;-50
2021/11/04 08:55:37;;;;;;;11.70;1.10;;;;;;;;;;5093724;28;20717;-49
2021/11/04 08:58:02;;;;;;;6.10;0.93;;;;;;;;;;5103777;28;20319;-50
2021/11/04 09:00:28;;;;;;;11.13;1.25;;;;;;;;;;5100213;28;20284;-51
2021/11/04 09:02:54;;;;;;;11.15;1.30;;;;;;;;;;5094895;28;20079;-51
2021/11/04 09:05:19;;;;;;;10.65;1.25;;;;;;;;;;5098335;28;20063;-51
2021/11/04 09:07:45;;;;;;;8.05;0.90;;;;;;;;;;5092709;28;20027;-50
2021/11/04 09:10:13;;;;;;;12.48;1.10;;;;;;;;;;5081104;28;20036;-51
2021/11/04 09:12:39;;;;;;;4.72;1.20;;;;;;;;;;5088157;28;20059;-52
2021/11/04 09:15:06;;;;;;;12.40;1.13;;;;;;;;;;5098613;28;20081;-50
2021/11/04 09:17:32;;;;;;;11.57;1.40;;;;;;;;;;5099599;28;20039;-52
2021/11/04 09:19:58;;;;;;;13.48;2.22;;;;;;;;;;5097614;28;20028;-50
2021/11/04 09:22:24;;;;;;;16.10;1.48;;;;;;;;;;5103171;28;20042;-49
2021/11/04 09:24:50;;;;;;;3.88;1.00;;;;;;;;;;5095653;28;20088;-49
2021/11/04 09:27:16;;;;;;;9.45;1.90;;;;;;;;;;5098986;28;20059;-49
2021/11/04 09:29:42;;;;;;;4.82;1.00;;;;;;;;;;5096434;28;20115;-48
2021/11/04 09:32:11;;;;;;;10.10;0.85;;;;;;;;;;5087139;28;20036;-48
2021/11/04 09:34:39;;;;;;;8.30;1.52;;;;;;;;;;5093106;28;20020;-51
2021/11/04 09:37:05;;;;;;;16.02;1.27;;;;;;;;;;5093662;28;20036;-51
2021/11/04 09:39:32;;;;;;;12.65;1.85;;;;;;;;;;5094633;27;20027;-54
2021/11/04 09:41:58;;;;;;;23.58;2.65;;;;;;;;;;5100387;28;20046;-50
2021/11/04 09:44:24;;;;;;;4.40;1.40;;;;;;;;;;5101304;28;20035;-49
2021/11/04 09:46:50;;;;;;;8.73;1.20;;;;;;;;;;5094877;28;20063;-51
2021/11/04 09:49:16;;;;;;;16.75;1.80;;;;;;;;;;5093326;28;20031;-49
2021/11/04 09:51:42;;;;;;;6.50;1.10;;;;;;;;;;5104788;28;20024;-49
2021/11/04 09:54:07;;;;;;;14.32;2.08;;;;;;;;;;5103470;28;20040;-51
2021/11/04 09:56:35;;;;;;;16.55;4.05;;;;;;;;;;5102510;28;20465;-52
2021/11/04 09:59:01;;;;;;;13.00;1.63;;;;;;;;;;5105501;28;20490;-53
2021/11/04 10:01:29;;;;;;;12.90;1.42;;;;;;;;;;5099038;28;20035;-51
2021/11/04 10:03:57;;;;;;;8.45;1.48;;;;;;;;;;5095349;28;20052;-49
2021/11/04 10:06:28;;;;;;;21.33;1.52;;;;;;;;;;5090338;28;20039;-50
2021/11/04 10:08:58;;;;;;;8.95;1.33;;;;;;;;;;5085537;28;20467;-52
2021/11/04 10:11:28;;;;;;;8.00;1.40;;;;;;;;;;5094414;28;20111;-52
2021/11/04 10:14:06;;;;;;;11.40;1.17;;;;;;;;;;5099564;28;20032;-53
2021/11/04 10:16:33;;;;;;;11.32;1.73;;;;;;;;;;5100821;28;20039;-52
2021/11/04 10:19:07;;;;;;;6.93;1.50;;;;;;;;;;5094510;28;20129;-52
2021/11/04 10:21:36;;;;;;;8.88;1.70;;;;;;;;;;5093960;28;20039;-52
2021/11/04 10:24:02;;;;;;;13.40;1.98;;;;;;;;;;5097300;28;20027;-51
2021/11/04 10:26:35;;;;;;;11.32;1.60;;;;;;;;;;5095571;28;20402;-53
2021/11/04 10:29:07;;;;;;;26.75;2.03;;;;;;;;;;5104187;27;20656;-52
2021/11/04 10:31:41;;;;;;;5.85;1.38;;;;;;;;;;5099524;28;20522;-52
2021/11/04 10:34:28;;;;;;;8.10;1.05;;;;;;;;;;5095400;28;20093;-55
2021/11/04 10:37:15;;;;;;;8.23;1.38;;;;;;;;;;5094708;28;20020;-52
2021/11/04 10:39:43;;;;;;;13.27;1.40;;;;;;;;;;5102749;28;20024;-52
2021/11/04 10:42:09;;;;;;;9.57;2.10;;;;;;;;;;5095019;28;20112;-52
2021/11/04 10:44:35;;;;;;;12.35;2.42;;;;;;;;;;5099923;27;20028;-52
2021/11/04 10:47:02;;;;;;;13.93;1.48;;;;;;;;;;5094876;28;20042;-50
2021/11/04 10:49:43;;;;;;;9.32;1.50;;;;;;;;;;5080285;28;20062;-48
2021/11/04 10:52:09;;;;;;;14.45;1.90;;;;;;;;;;5096295;28;20028;-49
2021/11/04 10:54:45;;;;;;;13.77;1.20;;;;;;;;;;5099075;28;20019;-52
2021/11/04 10:57:11;;;;;;;11.77;1.30;;;;;;;;;;5099894;28;20036;-56
2021/11/04 10:59:46;;;;;;;6.78;1.20;;;;;;;;;;5092858;28;20398;-54
2021/11/04 11:02:12;;;;;;;11.73;1.85;;;;;;;;;;5095820;28;20549;-53
2021/11/04 11:04:38;;;;;;;10.65;1.20;;;;;;;;;;5097819;28;20020;-49
2021/11/04 11:07:03;;;;;;;12.95;1.38;;;;;;;;;;5096163;28;20642;-49
2021/11/04 11:09:37;;;;;;;14.63;1.42;;;;;;;;;;5098869;28;20039;-52
2021/11/04 11:12:07;;;;;;;10.85;2.05;;;;;;;;;;5095585;28;20020;-52
2021/11/04 11:14:34;;;;;;;15.88;2.00;;;;;;;;;;5078157;28;20571;-51
2021/11/04 11:17:02;;;;;;;15.20;1.60;;;;;;;;;;5092291;28;20024;-52
2021/11/04 11:19:29;;;;;;;3.20;1.05;;;;;;;;;;5094652;28;20032;-49
2021/11/04 11:21:57;;;;;;;12.95;1.30;;;;;;;;;;5093029;28;20107;-50
2021/11/04 11:24:29;;;;;;;8.77;1.17;;;;;;;;;;5082201;28;20031;-52
2021/11/04 11:26:57;;;;;;;11.77;0.93;;;;;;;;;;5095231;28;20027;-51
2021/11/04 11:29:23;;;;;;;7.28;1.20;;;;;;;;;;5101662;27;20040;-49
2021/11/04 11:31:55;;;;;;;8.85;0.80;;;;;;;;;;5095468;28;20394;-50
2021/11/04 11:34:29;;;;;;;10.75;0.85;;;;;;;;;;5099318;28;20020;-49
2021/11/04 11:37:05;;;;;;;17.60;1.25;;;;;;;;;;5097485;28;20020;-51
2021/11/04 11:39:51;;;;;;;9.15;1.30;;;;;;;;;;5094241;28;20039;-52
2021/11/04 11:42:25;;;;;;;6.72;1.20;;;;;;;;;;5095731;28;20071;-52
2021/11/04 11:44:56;;;;;;;14.25;2.03;;;;;;;;;;5092411;28;20077;-52
2021/11/04 11:47:37;;;;;;;10.77;1.50;;;;;;;;;;5096251;28;20561;-51
2021/11/04 11:50:22;;;;;;;4.85;1.77;;;;;;;;;;5093172;28;20028;-52
2021/11/04 11:52:53;;;;;;;12.98;1.67;;;;;;;;;;5096097;28;20020;-52
2021/11/04 11:55:38;;;;;;;6.10;1.05;;;;;;;;;;5091299;28;20553;-53
2021/11/04 11:58:47;;;;;;;12.30;1.30;;;;;;;;;;5095645;28;20698;-53
2021/11/04 12:01:14;;;;;;;6.45;1.20;;;;;;;;;;5091932;28;20510;-52
2021/11/04 12:03:40;;;;;;;23.30;1.48;;;;;;;;;;5091291;28;20067;-52
2021/11/04 12:06:12;;;;;;;5.90;1.10;;;;;;;;;;5089023;28;20028;-52
2021/11/04 12:08:48;;;;;;;5.75;1.15;;;;;;;;;;5090098;28;20034;-51
2021/11/04 12:11:41;;;;;;;7.13;0.93;;;;;;;;;;5095332;28;20036;-54
2021/11/04 12:14:16;;;;;;;21.38;1.67;;;;;;;;;;5091940;28;20194;-52
2021/11/04 12:16:59;;;;;;;6.93;1.08;;;;;;;;;;5088319;28;20027;-53
2021/11/04 12:20:01;;;;;;;10.75;1.30;;;;;;;;;;5095277;28;20141;-52
2021/11/04 12:22:37;;;;;;;13.70;2.40;;;;;;;;;;5036335;28;20287;-54
2021/11/04 12:25:09;;;;;;;9.57;1.70;;;;;;;;;;5084607;28;20044;-53
2021/11/04 12:27:46;;;;;;;10.60;1.23;;;;;;;;;;5090730;28;20036;-52
2021/11/04 12:30:23;;;;;;;11.77;1.23;;;;;;;;;;5077294;28;20044;-53
2021/11/04 12:33:10;;;;;;;6.28;0.90;;;;;;;;;;5093558;28;20042;-52
2021/11/04 12:35:51;;;;;;;8.20;0.88;;;;;;;;;;5095742;28;20545;-52
2021/11/04 12:38:28;;;;;;;9.17;0.83;;;;;;;;;;5094866;28;20093;-51
2021/11/04 12:41:17;;;;;;;4.15;1.10;;;;;;;;;;5089011;28;20118;-53
2021/11/04 12:43:47;;;;;;;5.53;0.98;;;;;;;;;;5097636;28;20102;-53
2021/11/04 12:46:23;;;;;;;7.43;1.45;;;;;;;;;;5093104;28;20063;-54
2021/11/04 12:49:01;;;;;;;16.02;1.75;;;;;;;;;;5094382;28;20023;-54
2021/11/04 12:51:50;;;;;;;7.10;0.77;;;;;;;;;;5104870;28;20042;-52
2021/11/04 12:54:22;;;;;;;8.18;1.30;;;;;;;;;;5096798;28;20032;-52
2021/11/04 12:56:57;;;;;;;9.38;0.98;;;;;;;;;;5090075;28;20028;-53
2021/11/04 12:59:39;;;;;;;5.50;0.70;;;;;;;;;;5097291;28;20039;-52
2021/11/04 13:02:06;;;;;;;8.75;1.00;;;;;;;;;;5090464;28;20027;-52
2021/11/04 13:04:35;;;;;;;7.60;0.82;;;;;;;;;;5092405;28;20035;-52
2021/11/04 13:07:01;;;;;;;4.75;0.80;;;;;;;;;;5099286;28;20074;-53
2021/11/04 13:09:28;;;;;;;12.25;1.00;;;;;;;;;;5099397;28;20032;-53
2021/11/04 13:12:21;;;;;;;4.22;0.50;;;;;;;;;;5098037;28;20115;-55
2021/11/04 13:14:56;;;;;;;8.50;1.05;;;;;;;;;;5094721;27;20474;-53
2021/11/04 13:17:38;;;;;;;12.68;1.83;;;;;;;;;;5099518;28;20136;-53
2021/11/04 13:20:13;;;;;;;12.48;1.30;;;;;;;;;;5099033;28;20039;-53
2021/11/04 13:22:44;;;;;;;11.52;0.90;;;;;;;;;;5100690;28;20075;-52
2021/11/04 13:25:22;;;;;;;6.88;0.85;;;;;;;;;;5102500;28;20028;-51
2021/11/04 13:27:54;;;;;;;3.63;0.80;;;;;;;;;;5095689;28;20045;-54
2021/11/04 13:30:31;;;;;;;2.67;0.68;;;;;;;;;;5095491;28;20036;-51
2021/11/04 13:32:57;;;;;;;3.10;0.60;;;;;;;;;;5099156;28;20055;-54
2021/11/04 13:35:28;;;;;;;6.75;0.80;;;;;;;;;;5106606;28;20071;-53
2021/11/04 13:38:20;;;;;;;6.65;1.20;;;;;;;;;;5091997;28;20061;-54
2021/11/04 13:40:54;;;;;;;9.77;0.80;;;;;;;;;;5092410;28;20250;-53
2021/11/04 13:43:38;;;;;;;6.68;0.95;;;;;;;;;;5101579;28;20065;-53
2021/11/04 13:46:16;;;;;;;8.60;0.82;;;;;;;;;;5100775;28;20112;-52
2021/11/04 13:48:55;;;;;;;8.15;1.95;;;;;;;;;;5095049;28;20027;-51
2021/11/04 13:51:35;;;;;;;4.57;0.90;;;;;;;;;;5095589;28;20190;-51
2021/11/04 13:54:20;;;;;;;12.05;0.73;;;;;;;;;;5091947;28;20028;-50
2021/11/04 13:56:48;;;;;;;6.80;0.95;;;;;;;;;;5098473;28;20027;-50
2021/11/04 13:59:40;;;;;;;3.25;0.52;;;;;;;;;;5102368;28;20106;-52
2021/11/04 14:02:11;;;;;;;5.35;0.50;;;;;;;;;;5097136;28;20077;-53
2021/11/04 14:04:50;;;;;;;6.88;0.50;;;;;;;;;;5094039;28;20028;-53
2021/11/04 14:07:39;;;;;;;4.68;0.75;;;;;;;;;;5099156;28;20178;-53
2021/11/04 14:10:08;;;;;;;2.25;0.30;;;;;;;;;;5096389;28;20566;-53
2021/11/04 14:12:36;;;;;;;8.07;0.68;;;;;;;;;;5098721;28;20054;-53
2021/11/04 14:15:40;;;;;;;4.28;1.13;;;;;;;;;;5095789;28;20452;-51
2021/11/04 14:18:18;;;;;;;1.58;0.38;;;;;;;;;;5085144;28;20063;-54
2021/11/04 14:20:43;;;;;;;1.95;0.60;;;;;;;;;;5095022;28;20232;-52
2021/11/04 14:23:09;;;;;;;3.92;0.52;;;;;;;;;;5093933;28;20036;-55
2021/11/04 14:25:36;;;;;;;3.90;0.75;;;;;;;;;;5094275;28;20023;-53
2021/11/04 14:28:05;;;;;;;1.27;0.40;;;;;;;;;;5095047;28;20039;-53
2021/11/04 14:30:33;;;;;;;4.70;0.70;;;;;;;;;;5102874;28;20024;-53
2021/11/04 14:32:58;;;;;;;8.73;0.80;;;;;;;;;;5100843;28;20394;-54
2021/11/04 14:35:25;;;;;;;3.03;0.50;;;;;;;;;;5105066;28;20032;-52
2021/11/04 14:37:50;;;;;;;3.70;0.60;;;;;;;;;;5094375;28;20043;-53
2021/11/04 14:40:16;;;;;;;5.22;0.95;;;;;;;;;;5099761;28;20024;-52
2021/11/04 14:42:42;;;;;;;4.78;0.60;;;;;;;;;;5099528;28;20032;-54
2021/11/04 14:45:09;;;;;;;2.13;0.40;;;;;;;;;;5099917;28;20040;-53
2021/11/04 14:47:37;;;;;;;7.63;0.60;;;;;;;;;;5093442;28;20039;-53